PDT,Max TemperatureF,Mean TemperatureF,Min TemperatureF,Max Dew PointF,MeanDew PointF,Min DewpointF,Max Humidity, Mean Humidity, Min Humidity, Max Sea Level PressureIn, Mean Sea Level PressureIn, Min Sea Level PressureIn, Max VisibilityMiles, Mean VisibilityMiles, Min VisibilityMiles, Max Wind SpeedMPH, Mean Wind SpeedMPH, Max Gust SpeedMPH,PrecipitationIn, CloudCover, Events, WindDirDegrees
2013-4-1,70,52,34,37,35,33,65,44,22,29.98,29.94,29.88,10,10,10,20,9,,0.00,0,,293
2013-4-2,64,52,40,37,36,34,54,42,26,30.04,30.02,29.98,10,10,10,23,14,31,0.00,0,,303
2013-4-3,63,51,38,37,33,29,61,42,27,30.10,30.02,29.95,10,10,10,15,10,,0.00,0,,359
2013-4-4,54,46,37,50,43,33,100,75,39,29.94,29.78,29.69,10,9,5,9,3,,0.11,7,Rain,286
2013-4-5,59,52,45,46,44,37,100,83,39,29.81,29.76,29.73,10,6,0,17,2,24,0.01,6,Fog-Rain,278
2013-4-6,59,51,43,41,33,25,82,54,30,29.86,29.80,29.73,10,10,7,26,8,33,0.07,4,Rain,286
2013-4-7,50,43,36,38,34,26,93,74,39,29.76,29.60,29.51,10,8,2,18,6,,0.33,6,Rain,287
2013-4-8,48,40,32,40,34,27,77,62,47,30.22,30.01,29.78,10,10,10,15,7,,T,6,Rain,355
2013-4-9,54,40,26,37,33,30,76,56,36,30.32,30.24,30.15,10,10,10,8,6,,0.00,4,,294
2013-4-10,61,48,35,42,35,28,76,55,32,30.14,29.99,29.83,10,10,10,28,9,41,0.03,2,Rain,317
2013-4-11,54,41,28,31,25,17,58,40,21,30.15,30.11,30.06,10,10,10,38,18,51,0.00,0,,315
2013-4-12,52,40,28,36,29,24,82,59,41,30.12,29.88,29.58,10,10,10,12,6,,0.07,3,,332
2013-4-13,48,39,29,31,25,19,73,48,29,29.89,29.75,29.57,10,10,10,31,18,43,T,2,,302
2013-4-14,46,36,26,34,27,19,79,54,27,29.93,29.90,29.85,10,10,10,20,9,21,T,4,Rain,321
2013-4-15,46,39,31,35,32,30,92,77,52,30.17,30.01,29.91,10,8,1,13,5,,0.00,7,Rain-Snow,264
2013-4-16,54,45,36,33,21,12,85,53,21,30.38,30.29,30.18,10,10,10,17,6,23,0.00,5,,336
2013-4-17,58,45,32,28,25,22,70,47,24,30.44,30.37,30.30,10,10,10,20,7,24,0.00,2,,297
2013-4-18,54,40,26,35,32,28,60,46,34,30.32,30.25,30.12,10,10,10,15,7,,0.02,4,,300
2013-4-19,66,56,46,38,35,33,65,48,31,30.11,29.99,29.92,10,10,10,24,12,30,0.00,1,,303
2013-4-20,61,49,36,34,31,27,68,43,26,30.11,30.07,30.02,10,10,10,25,10,33,0.00,1,,314
2013-4-21,48,41,33,33,30,28,73,52,32,30.32,30.14,30.06,10,10,10,23,7,36,0.15,3,,324
2013-4-22,52,41,30,31,19,5,79,41,11,30.51,30.42,30.34,10,10,10,10,6,,0.00,0,,278
2013-4-23,57,42,26,27,24,16,60,38,16,30.38,30.27,30.19,10,10,10,10,6,21,0.00,0,,269
2013-4-24,63,45,27,30,26,19,65,35,15,30.32,30.15,29.94,10,10,10,25,7,31,0.00,0,,299
2013-4-25,77,63,49,35,30,21,39,29,19,30.04,29.94,29.91,10,10,10,30,16,37,0.00,0,,300
2013-4-26,72,55,38,37,30,18,51,29,12,30.13,30.09,30.05,10,10,10,20,10,28,0.00,0,,300
2013-4-27,64,56,47,37,33,25,59,41,20,30.07,30.04,30.01,10,10,10,30,8,44,0.00,1,,279
2013-4-28,61,50,39,36,30,25,74,43,22,30.08,30.01,29.85,10,10,10,23,6,31,0.00,0,,282
2013-4-29,56,46,36,37,23,10,76,46,16,30.04,29.91,29.77,10,10,10,37,19,46,T,1,,311
2013-4-30,48,36,24,22,19,13,52,35,18,30.37,30.18,30.06,10,10,10,21,9,28,0.02,2,,306